createdAt,value
2022-08-26T00:01:52.723Z,6.47
2022-08-26T00:04:21.913Z,5.18
2022-08-26T00:06:48.718Z,6.18
2022-08-26T00:09:16.383Z,5.53
2022-08-26T00:11:47.219Z,6.00
2022-08-26T00:14:15.040Z,6.05
2022-08-26T00:16:47.587Z,6.72
2022-08-26T00:19:18.316Z,6.43
2022-08-26T00:21:46.301Z,5.95
2022-08-26T00:24:15.894Z,5.93
2022-08-26T00:26:42.978Z,6.38
2022-08-26T00:29:10.207Z,6.30
2022-08-26T00:31:37.846Z,5.78
2022-08-26T00:34:06.014Z,5.85
2022-08-26T00:36:34.058Z,6.63
2022-08-26T00:39:01.039Z,6.10
2022-08-26T00:41:28.797Z,5.85
2022-08-26T00:43:55.615Z,6.30
2022-08-26T00:46:29.209Z,6.65
2022-08-26T00:49:12.253Z,7.10
2022-08-26T00:51:53.512Z,6.40
2022-08-26T00:54:27.015Z,6.60
2022-08-26T00:57:05.642Z,6.25
2022-08-26T00:59:45.613Z,6.80
2022-08-26T01:02:18.005Z,7.30
2022-08-26T01:07:55.643Z,6.95
2022-08-26T01:10:28.018Z,6.38
2022-08-26T01:13:22.096Z,6.90
2022-08-26T01:15:56.877Z,6.15
2022-08-26T01:18:26.589Z,6.85
2022-08-26T01:20:59.950Z,7.20
2022-08-26T01:23:31.881Z,6.43
2022-08-26T01:26:19.645Z,6.07
2022-08-26T01:28:50.648Z,6.85
2022-08-26T01:31:23.840Z,6.40
2022-08-26T01:34:09.004Z,7.10
2022-08-26T01:36:37.799Z,6.70
2022-08-26T01:39:05.915Z,6.80
2022-08-26T01:41:35.308Z,6.30
2022-08-26T01:44:05.196Z,6.40
2022-08-26T01:46:32.960Z,6.40
2022-08-26T01:49:03.102Z,6.97
2022-08-26T01:51:39.008Z,6.85
2022-08-26T01:54:12.023Z,6.70
2022-08-26T01:56:40.710Z,6.70
2022-08-26T01:59:14.439Z,6.88
2022-08-26T02:01:41.825Z,6.53
2022-08-26T02:04:25.678Z,6.97
2022-08-26T02:06:54.592Z,7.63
2022-08-26T02:09:22.601Z,6.82
2022-08-26T02:11:51.093Z,7.45
2022-08-26T02:14:26.903Z,7.15
2022-08-26T02:16:54.279Z,7.43
2022-08-26T02:19:26.288Z,7.15
2022-08-26T02:21:53.638Z,6.90
2022-08-26T02:24:27.558Z,6.95
2022-08-26T02:26:57.716Z,6.80
2022-08-26T02:29:38.334Z,7.70
2022-08-26T02:32:08.395Z,7.03
2022-08-26T02:34:36.050Z,6.45
2022-08-26T02:37:11.258Z,6.63
2022-08-26T02:39:40.222Z,7.15
2022-08-26T02:42:07.524Z,6.65
2022-08-26T02:44:34.510Z,7.53
2022-08-26T02:47:01.530Z,7.10
2022-08-26T02:49:30.484Z,6.70
2022-08-26T02:51:57.682Z,6.90
2022-08-26T02:54:24.438Z,7.10
2022-08-26T02:56:51.574Z,6.45
2022-08-26T02:59:18.683Z,7.05
2022-08-26T03:01:45.494Z,6.93
2022-08-26T03:04:13.010Z,6.95
2022-08-26T03:06:41.629Z,6.70
2022-08-26T03:09:09.583Z,7.20
2022-08-26T03:11:37.750Z,7.18
2022-08-26T03:14:04.977Z,7.55
2022-08-26T03:16:34.949Z,6.53
2022-08-26T03:19:03.005Z,7.45
2022-08-26T03:21:30.206Z,7.38
2022-08-26T03:23:58.707Z,7.90
2022-08-26T03:26:27.143Z,7.90
2022-08-26T03:29:13.717Z,7.45
2022-08-26T03:31:40.941Z,7.18
2022-08-26T03:34:07.700Z,6.55
2022-08-26T03:36:35.066Z,7.00
2022-08-26T03:39:02.412Z,6.72
2022-08-26T03:41:29.770Z,7.22
2022-08-26T03:43:59.702Z,6.90
2022-08-26T03:46:29.577Z,7.38
2022-08-26T03:48:56.525Z,8.13
2022-08-26T03:51:23.500Z,8.35
2022-08-26T03:53:51.005Z,7.88
2022-08-26T03:56:17.752Z,7.60
2022-08-26T03:58:44.811Z,6.75
2022-08-26T04:01:16.144Z,7.57
2022-08-26T04:03:59.989Z,7.00
2022-08-26T04:06:33.422Z,7.30
2022-08-26T04:09:03.287Z,7.70
2022-08-26T04:11:34.309Z,7.50
2022-08-26T04:14:04.991Z,7.90
2022-08-26T04:16:32.265Z,7.72
2022-08-26T04:18:59.269Z,7.68
2022-08-26T04:21:27.221Z,8.13
2022-08-26T04:23:54.395Z,7.93
2022-08-26T04:26:24.352Z,7.80
2022-08-26T04:28:53.146Z,8.05
2022-08-26T04:31:20.819Z,8.25
2022-08-26T04:33:49.877Z,9.35
2022-08-26T04:36:18.492Z,9.27
2022-08-26T04:38:47.570Z,8.00
2022-08-26T04:41:14.977Z,8.65
2022-08-26T04:43:43.091Z,8.32
2022-08-26T04:46:16.846Z,8.35
2022-08-26T04:48:51.697Z,8.27
2022-08-26T04:51:21.355Z,8.57
2022-08-26T04:53:48.787Z,8.52
2022-08-26T04:56:17.601Z,8.00
2022-08-26T04:58:44.355Z,8.95
2022-08-26T05:01:12.037Z,9.30
2022-08-26T05:03:38.930Z,8.95
2022-08-26T05:06:07.761Z,9.07
2022-08-26T05:08:36.625Z,8.68
2022-08-26T05:11:04.995Z,7.97
2022-08-26T05:13:34.740Z,9.15
2022-08-26T05:16:07.685Z,8.48
2022-08-26T05:18:35.111Z,9.23
2022-08-26T05:21:03.239Z,9.18
2022-08-26T05:23:32.148Z,9.18
2022-08-26T05:26:00.414Z,9.23
2022-08-26T05:28:29.201Z,9.52
2022-08-26T05:30:56.347Z,9.25
2022-08-26T05:33:23.428Z,10.45
2022-08-26T05:35:50.320Z,10.15
2022-08-26T05:38:20.127Z,10.55
2022-08-26T05:40:52.901Z,10.90
2022-08-26T05:43:20.947Z,11.85
2022-08-26T05:45:50.368Z,11.05
2022-08-26T05:48:19.132Z,11.75
2022-08-26T05:50:52.640Z,11.60
2022-08-26T05:53:22.658Z,12.98
2022-08-26T05:55:53.032Z,11.93
2022-08-26T05:58:22.011Z,11.77
2022-08-26T06:01:00.968Z,11.35
2022-08-26T06:03:28.315Z,12.38
2022-08-26T06:05:55.576Z,12.68
2022-08-26T06:08:23.529Z,12.88
2022-08-26T06:10:54.222Z,11.18
2022-08-26T06:13:26.895Z,12.05
2022-08-26T06:15:59.320Z,13.25
2022-08-26T06:18:34.738Z,13.32
2022-08-26T06:21:11.892Z,13.27
2022-08-26T06:23:57.084Z,13.10
2022-08-26T06:26:26.172Z,12.18
2022-08-26T06:28:53.021Z,14.45
2022-08-26T06:31:19.881Z,14.40
2022-08-26T06:33:46.907Z,14.43
2022-08-26T06:36:23.326Z,15.55
2022-08-26T06:38:51.761Z,13.88
2022-08-26T06:41:23.764Z,15.10
2022-08-26T06:43:52.416Z,13.00
2022-08-26T06:46:22.373Z,13.80
2022-08-26T06:48:50.237Z,14.27
2022-08-26T06:51:28.178Z,15.15
2022-08-26T06:53:57.241Z,15.77
2022-08-26T06:56:26.858Z,15.95
2022-08-26T06:58:53.633Z,14.40
2022-08-26T07:01:26.481Z,14.65
2022-08-26T07:03:57.141Z,14.45
2022-08-26T07:06:24.387Z,13.68
2022-08-26T07:08:54.164Z,12.85
2022-08-26T07:11:20.921Z,14.75
2022-08-26T07:13:48.370Z,12.98
2022-08-26T07:16:17.760Z,13.32
2022-08-26T07:18:45.821Z,11.63
2022-08-26T07:21:14.718Z,12.73
2022-08-26T07:23:41.580Z,11.45
2022-08-26T07:26:12.220Z,11.02
2022-08-26T07:28:39.493Z,11.35
2022-08-26T07:31:07.597Z,10.23
2022-08-26T07:33:38.755Z,10.20
2022-08-26T07:36:08.592Z,10.70
2022-08-26T07:38:36.701Z,9.45
2022-08-26T07:41:03.857Z,10.52
2022-08-26T07:43:31.564Z,9.45
2022-08-26T07:45:58.261Z,10.15
2022-08-26T07:48:25.041Z,9.63
2022-08-26T07:50:53.841Z,9.45
2022-08-26T07:53:21.868Z,9.52
2022-08-26T07:55:51.323Z,9.13
2022-08-26T07:58:19.448Z,9.38
2022-08-26T08:00:47.440Z,9.70
2022-08-26T08:03:15.175Z,8.82
2022-08-26T08:05:42.354Z,9.30
2022-08-26T08:08:26.988Z,9.05
2022-08-26T08:10:55.525Z,9.60
2022-08-26T08:13:23.565Z,9.98
2022-08-26T08:15:50.994Z,10.35
2022-08-26T08:18:20.520Z,9.77
2022-08-26T08:20:59.035Z,9.57
2022-08-26T08:23:32.859Z,9.02
2022-08-26T08:26:11.013Z,9.13
2022-08-26T08:28:38.760Z,8.90
2022-08-26T08:31:05.965Z,8.98
2022-08-26T08:33:33.803Z,8.45
2022-08-26T08:36:01.525Z,8.35
2022-08-26T08:38:28.624Z,8.23
2022-08-26T08:40:55.450Z,8.45
2022-08-26T08:43:39.995Z,8.63
2022-08-26T08:46:16.504Z,7.82
2022-08-26T08:48:51.211Z,8.00
2022-08-26T08:51:26.580Z,8.93
2022-08-26T08:53:55.066Z,8.13
2022-08-26T08:56:29.192Z,7.75
2022-08-26T08:59:19.620Z,8.35
2022-08-26T09:02:11.063Z,8.38
2022-08-26T09:04:53.820Z,8.40
2022-08-26T09:07:30.473Z,8.15
2022-08-26T09:10:06.162Z,9.02
2022-08-26T09:12:34.536Z,8.65
2022-08-26T09:15:11.329Z,8.55
2022-08-26T09:17:47.120Z,8.55
2022-08-26T09:20:18.146Z,8.07
2022-08-26T09:22:44.948Z,7.32
2022-08-26T09:25:14.095Z,7.25
2022-08-26T09:27:50.540Z,7.05
2022-08-26T09:30:32.954Z,6.88
2022-08-26T09:33:03.242Z,7.20
2022-08-26T09:35:40.839Z,7.80
2022-08-26T09:38:22.645Z,7.57
2022-08-26T09:40:59.779Z,7.88
2022-08-26T09:43:28.578Z,7.70
2022-08-26T09:46:17.805Z,7.93
2022-08-26T09:48:44.785Z,7.75
2022-08-26T09:51:23.311Z,7.40
2022-08-26T09:53:57.551Z,7.30
2022-08-26T09:56:33.496Z,7.28
2022-08-26T09:59:01.453Z,7.78
2022-08-26T10:01:31.908Z,7.50
2022-08-26T10:04:14.065Z,7.53
2022-08-26T10:07:05.890Z,7.88
2022-08-26T10:09:38.989Z,7.07
2022-08-26T10:12:11.629Z,7.45
2022-08-26T10:14:48.641Z,7.57
2022-08-26T10:17:34.232Z,7.50
2022-08-26T10:20:25.339Z,7.28
2022-08-26T10:23:00.979Z,7.13
2022-08-26T10:25:51.409Z,7.10
2022-08-26T10:28:37.903Z,7.10
2022-08-26T10:31:18.484Z,6.65
2022-08-26T10:33:47.266Z,7.47
2022-08-26T10:36:47.030Z,6.30
2022-08-26T10:39:43.650Z,6.60
2022-08-26T10:42:19.391Z,5.78
2022-08-26T10:44:52.437Z,6.15
2022-08-26T10:47:26.009Z,5.82
2022-08-26T10:49:57.491Z,6.57
2022-08-26T10:52:55.290Z,6.05
2022-08-26T10:55:53.244Z,5.97
2022-08-26T10:58:47.866Z,5.95
2022-08-26T11:01:43.207Z,5.80
2022-08-26T11:04:16.657Z,6.15
2022-08-26T11:06:46.114Z,5.65
2022-08-26T11:09:43.100Z,6.03
2022-08-26T11:12:10.476Z,6.00
2022-08-26T11:14:39.498Z,6.32
2022-08-26T11:17:45.595Z,6.00
2022-08-26T11:20:27.573Z,5.93
2022-08-26T11:22:55.883Z,6.38
2022-08-26T11:25:30.218Z,5.85
2022-08-26T11:27:59.888Z,5.93
2022-08-26T11:30:40.574Z,6.10
2022-08-26T11:33:08.467Z,5.97
2022-08-26T11:35:37.411Z,5.57
2022-08-26T11:38:26.479Z,6.20
2022-08-26T11:41:06.493Z,6.45
2022-08-26T11:43:34.132Z,6.70
2022-08-26T11:46:06.020Z,6.03
2022-08-26T11:48:40.711Z,6.22
2022-08-26T11:51:11.237Z,5.47
2022-08-26T11:53:41.096Z,5.93
2022-08-26T11:56:32.623Z,5.07
2022-08-26T11:59:07.657Z,5.90
2022-08-26T12:01:38.322Z,5.60
2022-08-26T12:04:08.285Z,5.63
2022-08-26T12:06:48.699Z,5.78
2022-08-26T12:09:23.566Z,5.50
2022-08-26T12:11:50.849Z,5.88
2022-08-26T12:14:21.895Z,7.07
2022-08-26T12:16:48.866Z,6.97
2022-08-26T12:19:34.011Z,8.55
2022-08-26T12:22:07.597Z,8.57
2022-08-26T12:24:35.935Z,7.82
2022-08-26T12:27:37.332Z,9.43
2022-08-26T12:30:12.235Z,8.25
2022-08-26T12:32:57.486Z,9.20
2022-08-26T12:35:25.701Z,9.40
2022-08-26T12:37:54.520Z,8.13
2022-08-26T12:40:28.967Z,9.23
2022-08-26T12:42:57.444Z,8.57
2022-08-26T12:45:45.306Z,8.65
2022-08-26T12:48:29.944Z,9.40
2022-08-26T12:50:58.144Z,10.50
2022-08-26T12:53:27.980Z,10.35
2022-08-26T12:56:03.759Z,11.25
2022-08-26T12:58:36.041Z,10.73
2022-08-26T13:01:08.791Z,11.20
2022-08-26T13:03:38.987Z,11.35
2022-08-26T13:06:29.640Z,11.93
2022-08-26T13:09:30.207Z,10.50
2022-08-26T13:11:58.452Z,11.52
2022-08-26T13:14:25.168Z,12.02
2022-08-26T13:16:52.954Z,11.40
2022-08-26T13:19:22.496Z,11.55
2022-08-26T13:22:01.530Z,12.52
2022-08-26T13:24:35.032Z,11.32
2022-08-26T13:27:04.440Z,11.88
2022-08-26T13:29:31.278Z,12.45
2022-08-26T13:31:58.773Z,11.68
2022-08-26T13:34:26.977Z,13.25
2022-08-26T13:36:55.304Z,12.18
2022-08-26T13:39:23.657Z,13.63
2022-08-26T13:41:51.541Z,13.10
2022-08-26T13:44:18.622Z,11.52
2022-08-26T13:49:12.488Z,10.93
2022-08-26T13:51:39.917Z,10.32
2022-08-26T13:54:07.032Z,10.93
2022-08-26T13:56:34.813Z,10.68
2022-08-26T13:59:02.137Z,9.63
2022-08-26T14:01:31.167Z,10.25
2022-08-26T14:03:58.516Z,9.75
2022-08-26T14:06:25.424Z,10.27
2022-08-26T14:08:52.327Z,10.25
2022-08-26T14:11:19.440Z,9.90
2022-08-26T14:13:46.156Z,9.57
2022-08-26T14:16:22.211Z,9.93
2022-08-26T14:18:51.026Z,9.00
2022-08-26T14:21:18.471Z,9.65
2022-08-26T14:23:45.328Z,9.52
2022-08-26T14:26:16.816Z,9.15
2022-08-26T14:28:56.989Z,8.90
2022-08-26T14:31:24.578Z,8.93
2022-08-26T14:33:51.502Z,9.32
2022-08-26T14:36:32.276Z,9.38
2022-08-26T14:39:03.866Z,8.30
2022-08-26T14:41:32.438Z,9.38
2022-08-26T14:44:08.135Z,8.25
2022-08-26T14:46:43.718Z,9.02
2022-08-26T14:49:11.181Z,7.88
2022-08-26T14:51:39.821Z,7.95
2022-08-26T14:54:14.758Z,7.47
2022-08-26T14:57:01.266Z,7.82
2022-08-26T14:59:30.854Z,8.07
2022-08-26T15:01:58.431Z,7.72
2022-08-26T15:04:25.550Z,7.85
2022-08-26T15:06:54.366Z,8.02
2022-08-26T15:09:22.224Z,7.85
2022-08-26T15:11:49.533Z,7.40
2022-08-26T15:14:19.698Z,7.30
2022-08-26T15:16:52.288Z,7.53
2022-08-26T15:19:20.803Z,8.20
2022-08-26T15:21:47.902Z,7.93
2022-08-26T15:24:18.031Z,7.80
2022-08-26T15:26:47.451Z,7.55
2022-08-26T15:29:14.497Z,7.95
2022-08-26T15:31:41.535Z,7.75
2022-08-26T15:34:14.515Z,7.47
2022-08-26T15:36:45.952Z,7.80
2022-08-26T15:39:13.336Z,7.45
2022-08-26T15:41:41.155Z,8.02
2022-08-26T15:44:10.093Z,7.32
2022-08-26T15:46:38.401Z,7.75
2022-08-26T15:49:06.091Z,7.95
2022-08-26T15:51:45.779Z,8.65
2022-08-26T15:54:14.367Z,8.30
2022-08-26T15:56:41.315Z,8.10
2022-08-26T15:59:11.389Z,8.65
2022-08-26T16:01:38.482Z,8.90
2022-08-26T16:04:05.649Z,9.80
2022-08-26T16:06:35.426Z,9.93
2022-08-26T16:09:02.467Z,9.95
2022-08-26T16:11:29.591Z,8.93
2022-08-26T16:13:56.391Z,9.07
2022-08-26T16:16:23.590Z,9.25
2022-08-26T16:18:50.785Z,8.38
2022-08-26T16:21:20.841Z,8.63
2022-08-26T16:23:48.552Z,8.45
2022-08-26T16:26:21.484Z,9.00
2022-08-26T16:28:48.858Z,9.93
2022-08-26T16:31:16.472Z,9.75
2022-08-26T16:33:43.586Z,9.82
2022-08-26T16:36:11.224Z,9.32
2022-08-26T16:38:39.223Z,10.20
2022-08-26T16:41:06.832Z,9.90
2022-08-26T16:43:34.108Z,9.52
2022-08-26T16:46:00.929Z,10.02
2022-08-26T16:48:27.977Z,10.75
2022-08-26T16:50:55.638Z,8.95
2022-08-26T16:53:23.518Z,9.57
2022-08-26T16:55:51.574Z,9.82
2022-08-26T16:58:21.946Z,10.18
2022-08-26T17:00:49.727Z,9.38
2022-08-26T17:03:17.007Z,9.23
2022-08-26T17:05:44.117Z,10.93
2022-08-26T17:08:12.159Z,10.70
2022-08-26T17:10:39.943Z,10.07
2022-08-26T17:13:06.836Z,10.43
2022-08-26T17:15:33.645Z,10.43
2022-08-26T17:18:00.680Z,10.40
2022-08-26T17:20:27.529Z,9.35
2022-08-26T17:22:56.150Z,9.88
2022-08-26T17:25:30.538Z,10.00
2022-08-26T17:27:57.649Z,9.30
2022-08-26T17:30:25.827Z,10.18
2022-08-26T17:32:53.855Z,10.70
2022-08-26T17:35:21.171Z,10.68
2022-08-26T17:37:48.168Z,10.40
2022-08-26T17:40:18.558Z,10.52
2022-08-26T17:42:46.183Z,11.10
2022-08-26T17:45:13.930Z,10.95
2022-08-26T17:47:41.144Z,11.70
2022-08-26T17:50:10.748Z,11.55
2022-08-26T17:52:38.852Z,13.35
2022-08-26T17:55:10.059Z,13.68
2022-08-26T17:57:40.476Z,12.93
2022-08-26T18:00:13.021Z,10.70
2022-08-26T18:02:40.814Z,10.77
2022-08-26T18:05:09.119Z,11.50
2022-08-26T18:07:43.653Z,11.00
2022-08-26T18:10:13.636Z,11.10
2022-08-26T18:12:41.691Z,11.30
2022-08-26T18:15:10.040Z,12.13
2022-08-26T18:17:39.137Z,12.40
2022-08-26T18:20:08.599Z,12.82
2022-08-26T18:22:35.454Z,13.65
2022-08-26T18:25:02.143Z,13.50
2022-08-26T18:27:28.943Z,13.60
2022-08-26T18:29:55.965Z,12.60
2022-08-26T18:32:22.654Z,13.68
2022-08-26T18:34:49.447Z,12.60
2022-08-26T18:37:16.741Z,14.13
2022-08-26T18:39:43.414Z,13.93
2022-08-26T18:42:10.448Z,12.65
2022-08-26T18:44:37.166Z,13.27
2022-08-26T18:47:04.360Z,12.48
2022-08-26T18:49:31.181Z,13.45
2022-08-26T18:51:57.888Z,14.57
2022-08-26T18:54:24.617Z,15.13
2022-08-26T18:56:51.762Z,17.00
2022-08-26T18:59:18.802Z,16.98
2022-08-26T19:01:45.641Z,16.98
2022-08-26T19:04:14.760Z,16.75
2022-08-26T19:06:43.339Z,16.15
2022-08-26T19:09:11.776Z,15.95
2022-08-26T19:11:42.226Z,16.92
2022-08-26T19:14:15.854Z,16.25
2022-08-26T19:16:45.662Z,15.07
2022-08-26T19:19:12.893Z,15.18
2022-08-26T19:21:40.567Z,16.45
2022-08-26T19:24:15.112Z,16.13
2022-08-26T19:26:47.984Z,16.60
2022-08-26T19:29:15.451Z,15.93
2022-08-26T19:31:43.995Z,17.15
2022-08-26T19:34:13.263Z,16.17
2022-08-26T19:36:44.776Z,16.58
2022-08-26T19:39:13.826Z,16.17
2022-08-26T19:41:40.944Z,17.30
2022-08-26T19:44:33.997Z,16.95
2022-08-26T19:47:01.203Z,18.30
2022-08-26T19:49:28.042Z,18.13
2022-08-26T19:51:54.893Z,18.80
2022-08-26T19:54:22.781Z,17.73
2022-08-26T19:56:49.879Z,17.90
2022-08-26T19:59:17.552Z,17.70
2022-08-26T20:01:44.810Z,18.08
2022-08-26T20:04:12.490Z,18.85
2022-08-26T20:06:39.709Z,19.08
2022-08-26T20:09:06.593Z,18.52
2022-08-26T20:11:33.402Z,18.90
2022-08-26T20:14:00.468Z,17.35
2022-08-26T20:16:27.472Z,17.83
2022-08-26T20:19:12.861Z,18.02
2022-08-26T20:21:41.682Z,18.05
2022-08-26T20:24:13.506Z,17.98
2022-08-26T20:26:42.471Z,19.20
2022-08-26T20:29:11.837Z,18.77
2022-08-26T20:31:39.331Z,18.67
2022-08-26T20:34:06.883Z,20.00
2022-08-26T20:36:34.363Z,20.95
2022-08-26T20:39:01.309Z,18.83
2022-08-26T20:41:28.663Z,20.63
2022-08-26T20:43:56.275Z,19.70
2022-08-26T20:46:25.045Z,21.17
2022-08-26T20:48:53.714Z,20.38
2022-08-26T20:51:23.564Z,20.20
2022-08-26T20:53:50.813Z,21.45
2022-08-26T20:56:21.839Z,21.63
2022-08-26T20:58:48.615Z,21.38
2022-08-26T21:01:21.980Z,22.48
2022-08-26T21:03:51.849Z,22.42
2022-08-26T21:06:19.087Z,22.17
2022-08-26T21:08:48.466Z,23.77
2022-08-26T21:11:17.383Z,22.30
2022-08-26T21:14:03.981Z,22.92
2022-08-26T21:16:31.698Z,22.63
2022-08-26T21:19:00.416Z,23.50
2022-08-26T21:21:27.698Z,22.50
2022-08-26T21:23:55.586Z,21.98
2022-08-26T21:26:23.067Z,22.83
2022-08-26T21:28:50.293Z,23.42
2022-08-26T21:31:20.436Z,22.13
2022-08-26T21:33:47.248Z,22.90
2022-08-26T21:36:15.198Z,23.17
2022-08-26T21:38:42.670Z,23.70
2022-08-26T21:41:18.725Z,25.08
2022-08-26T21:43:47.145Z,23.95
2022-08-26T21:46:17.553Z,23.33
2022-08-26T21:48:50.861Z,23.85
2022-08-26T21:51:22.751Z,23.17
2022-08-26T21:53:50.357Z,22.55
2022-08-26T21:56:20.008Z,22.85
2022-08-26T21:58:48.645Z,23.40
2022-08-26T22:01:22.458Z,21.92
2022-08-26T22:03:58.779Z,22.92
2022-08-26T22:07:21.335Z,21.40
2022-08-26T22:09:48.656Z,21.75
2022-08-26T22:12:18.088Z,22.15
2022-08-26T22:14:45.675Z,22.30
2022-08-26T22:17:12.876Z,22.73
2022-08-26T22:19:45.808Z,22.05
2022-08-26T22:22:13.943Z,21.60
2022-08-26T22:24:40.883Z,22.15
2022-08-26T22:27:07.679Z,21.95
2022-08-26T22:29:34.489Z,22.25
2022-08-26T22:32:01.739Z,21.98
2022-08-26T22:34:28.916Z,23.35
2022-08-26T22:36:56.207Z,23.67
2022-08-26T22:39:25.168Z,21.00
2022-08-26T22:41:53.324Z,21.35
2022-08-26T22:44:22.196Z,21.50
2022-08-26T22:46:50.861Z,21.00
2022-08-26T22:49:17.851Z,20.95
2022-08-26T22:51:45.836Z,20.05
2022-08-26T22:54:13.521Z,20.08
2022-08-26T22:56:40.568Z,19.23
2022-08-26T22:59:08.669Z,20.00
2022-08-26T23:01:38.315Z,19.88
2022-08-26T23:04:06.589Z,19.98
2022-08-26T23:06:39.140Z,19.65
2022-08-26T23:09:07.496Z,20.58
2022-08-26T23:11:35.047Z,20.17
2022-08-26T23:14:06.308Z,20.83
2022-08-26T23:16:44.057Z,21.02
2022-08-26T23:19:12.774Z,19.25
2022-08-26T23:21:40.507Z,20.98
2022-08-26T23:24:08.263Z,19.23
2022-08-26T23:26:36.298Z,20.70
2022-08-26T23:29:05.076Z,18.83
2022-08-26T23:31:32.338Z,19.70
2022-08-26T23:34:18.314Z,20.02
2022-08-26T23:36:45.125Z,19.02
2022-08-26T23:39:14.696Z,19.48
2022-08-26T23:41:42.279Z,18.08
2022-08-26T23:44:09.156Z,20.60
2022-08-26T23:46:35.958Z,19.55
2022-08-26T23:49:04.192Z,20.75
2022-08-26T23:51:49.530Z,18.45
2022-08-26T23:54:16.521Z,19.85
2022-08-26T23:56:43.347Z,19.70
2022-08-26T23:59:10.047Z,20.65
